NCAR-RAP Real-Time Weather Data

Output produced by METARs form (08 May 2021  01:20 UTC)
found at http://weather.rap.ucar.edu/surface/
 
KHQM 080053Z AUTO 28013KT 10SM FEW036 11/04 A3033 RMK AO2 SLP274 T01110044
KHQM 072353Z AUTO 28014KT 10SM FEW040 FEW049 BKN055 12/04 A3032 RMK AO2 SLP272 60000 T01220044 10122 20083 53005
KHQM 072253Z AUTO 27014KT 10SM SCT035 12/04 A3032 RMK AO2 SLP269 T01220039
KHQM 072153Z AUTO 27013G20KT 10SM CLR 12/04 A3031 RMK AO2 SLP267 T01170039
KHQM 072053Z AUTO 27012KT 10SM FEW034 12/06 A3031 RMK AO2 SLP267 60000 T01170056 51016
KHQM 071953Z AUTO 28014G20KT 10SM SCT032 BKN041 BKN050 12/04 A3030 RMK AO2 WSHFT 1849 RAB00E15 SLP263 P0000 T01170044
KHQM 071909Z AUTO 31005KT 7SM -RA FEW026 SCT037 BKN048 08/05 A3029 RMK AO2 WSHFT 1849 RAB00 P0000 T00830050
KHQM 071853Z AUTO 30015G21KT 10SM FEW028 SCT035 BKN050 11/06 A3028 RMK AO2 RAB35E51 SLP258 P0000 T01060061
KHQM 071753Z AUTO 27009KT 10SM FEW025 10/06 A3026 RMK AO2 RAE00B25E39 SLP251 P0001 60005 T01000061 10106 20061 51018
KHQM 071653Z AUTO 29005KT 10SM -RA FEW031 SCT041 BKN050 09/06 A3025 RMK AO2 RAB35 SLP246 P0001 T00890056
KHQM 071553Z AUTO 03005KT 10SM FEW027 SCT034 09/06 A3023 RMK AO2 RAE1457B20E30 SLP240 P0000 T00890056
KHQM 071453Z AUTO 27004KT 10SM -RA FEW028 BKN037 OVC060 08/06 A3021 RMK AO2 RAB34 SLP233 P0000 60003 T00780056 53013
KHQM 071353Z AUTO 08003KT 10SM SCT049 07/06 A3019 RMK AO2 RAB05E18 SLP227 P0003 T00670056
KHQM 071253Z AUTO 34007KT 10SM BKN047 BKN055 BKN070 08/05 A3018 RMK AO2 SLP223 T00780050
KHQM 071221Z AUTO 30008KT 10SM SCT022 BKN031 OVC050 08/05 A3017 RMK AO2 T00830050